sensor_id;sensor_type;location;lat;lon;timestamp;P1;durP1;ratioP1;P2;durP2;ratioP2
58083;SDS011;43882;51.550;11.858;2023-08-07T00:02:08;15.55;;;5.45;;
58083;SDS011;43882;51.550;11.858;2023-08-07T00:04:34;17.08;;;6.50;;
58083;SDS011;43882;51.550;11.858;2023-08-07T00:07:00;17.80;;;6.68;;
58083;SDS011;43882;51.550;11.858;2023-08-07T00:09:27;18.73;;;6.63;;
58083;SDS011;43882;51.550;11.858;2023-08-07T00:11:53;19.38;;;7.50;;
58083;SDS011;43882;51.550;11.858;2023-08-07T00:14:19;19.30;;;7.50;;
58083;SDS011;43882;51.550;11.858;2023-08-07T00:16:45;19.35;;;7.55;;
58083;SDS011;43882;51.550;11.858;2023-08-07T00:19:11;20.15;;;7.40;;
58083;SDS011;43882;51.550;11.858;2023-08-07T00:21:37;18.92;;;7.22;;
58083;SDS011;43882;51.550;11.858;2023-08-07T00:24:04;18.95;;;7.47;;
58083;SDS011;43882;51.550;11.858;2023-08-07T00:26:30;20.15;;;7.65;;
58083;SDS011;43882;51.550;11.858;2023-08-07T00:28:57;18.40;;;7.65;;
58083;SDS011;43882;51.550;11.858;2023-08-07T00:31:23;19.15;;;7.75;;
58083;SDS011;43882;51.550;11.858;2023-08-07T00:33:49;19.13;;;7.50;;
58083;SDS011;43882;51.550;11.858;2023-08-07T00:36:19;19.48;;;7.68;;
58083;SDS011;43882;51.550;11.858;2023-08-07T00:38:45;20.08;;;7.60;;
58083;SDS011;43882;51.550;11.858;2023-08-07T00:41:11;19.20;;;7.57;;
58083;SDS011;43882;51.550;11.858;2023-08-07T00:43:37;21.48;;;7.57;;
58083;SDS011;43882;51.550;11.858;2023-08-07T00:46:03;20.90;;;7.60;;
58083;SDS011;43882;51.550;11.858;2023-08-07T00:48:29;20.52;;;7.75;;
58083;SDS011;43882;51.550;11.858;2023-08-07T00:50:55;18.33;;;6.82;;
58083;SDS011;43882;51.550;11.858;2023-08-07T00:53:22;17.58;;;7.20;;
58083;SDS011;43882;51.550;11.858;2023-08-07T00:55:48;18.45;;;7.05;;
58083;SDS011;43882;51.550;11.858;2023-08-07T00:58:14;19.13;;;7.13;;
58083;SDS011;43882;51.550;11.858;2023-08-07T01:00:40;18.75;;;7.10;;
58083;SDS011;43882;51.550;11.858;2023-08-07T01:03:07;18.38;;;7.32;;
58083;SDS011;43882;51.550;11.858;2023-08-07T01:05:33;19.80;;;6.95;;
58083;SDS011;43882;51.550;11.858;2023-08-07T01:08:00;18.98;;;6.82;;
58083;SDS011;43882;51.550;11.858;2023-08-07T01:10:31;17.95;;;6.63;;
58083;SDS011;43882;51.550;11.858;2023-08-07T01:16:31;19.23;;;6.60;;
58083;SDS011;43882;51.550;11.858;2023-08-07T01:19:09;18.60;;;6.93;;
58083;SDS011;43882;51.550;11.858;2023-08-07T01:24:50;18.13;;;7.07;;
58083;SDS011;43882;51.550;11.858;2023-08-07T01:32:14;18.55;;;6.32;;
58083;SDS011;43882;51.550;11.858;2023-08-07T01:34:44;18.70;;;7.10;;
58083;SDS011;43882;51.550;11.858;2023-08-07T01:37:11;19.52;;;7.30;;
58083;SDS011;43882;51.550;11.858;2023-08-07T01:39:37;20.35;;;7.28;;
58083;SDS011;43882;51.550;11.858;2023-08-07T01:42:04;18.25;;;7.13;;
58083;SDS011;43882;51.550;11.858;2023-08-07T01:44:31;18.52;;;7.57;;
58083;SDS011;43882;51.550;11.858;2023-08-07T01:46:57;18.58;;;7.38;;
58083;SDS011;43882;51.550;11.858;2023-08-07T01:49:23;19.95;;;7.82;;
58083;SDS011;43882;51.550;11.858;2023-08-07T01:51:49;20.67;;;8.25;;
58083;SDS011;43882;51.550;11.858;2023-08-07T01:54:15;21.48;;;7.80;;
58083;SDS011;43882;51.550;11.858;2023-08-07T01:56:41;21.98;;;8.40;;
58083;SDS011;43882;51.550;11.858;2023-08-07T01:59:07;20.92;;;7.53;;
58083;SDS011;43882;51.550;11.858;2023-08-07T02:01:33;21.15;;;7.97;;
58083;SDS011;43882;51.550;11.858;2023-08-07T02:04:00;20.50;;;7.50;;
58083;SDS011;43882;51.550;11.858;2023-08-07T02:06:26;20.33;;;7.30;;
58083;SDS011;43882;51.550;11.858;2023-08-07T02:08:52;19.42;;;7.35;;
58083;SDS011;43882;51.550;11.858;2023-08-07T02:11:18;19.50;;;7.40;;
58083;SDS011;43882;51.550;11.858;2023-08-07T02:13:44;20.10;;;7.47;;
58083;SDS011;43882;51.550;11.858;2023-08-07T02:16:10;21.98;;;7.72;;
58083;SDS011;43882;51.550;11.858;2023-08-07T02:18:36;19.13;;;7.80;;
58083;SDS011;43882;51.550;11.858;2023-08-07T02:21:02;18.67;;;7.40;;
58083;SDS011;43882;51.550;11.858;2023-08-07T02:23:28;20.27;;;7.85;;
58083;SDS011;43882;51.550;11.858;2023-08-07T02:25:54;19.08;;;7.03;;
58083;SDS011;43882;51.550;11.858;2023-08-07T02:28:20;20.67;;;7.97;;
58083;SDS011;43882;51.550;11.858;2023-08-07T02:30:46;20.55;;;8.73;;
58083;SDS011;43882;51.550;11.858;2023-08-07T02:33:16;19.65;;;7.80;;
58083;SDS011;43882;51.550;11.858;2023-08-07T02:35:42;21.63;;;8.32;;
58083;SDS011;43882;51.550;11.858;2023-08-07T02:38:08;22.38;;;8.32;;
58083;SDS011;43882;51.550;11.858;2023-08-07T02:40:34;21.20;;;8.73;;
58083;SDS011;43882;51.550;11.858;2023-08-07T02:43:01;21.42;;;8.38;;
58083;SDS011;43882;51.550;11.858;2023-08-07T02:45:27;22.35;;;8.88;;
58083;SDS011;43882;51.550;11.858;2023-08-07T02:47:53;20.60;;;8.77;;
58083;SDS011;43882;51.550;11.858;2023-08-07T02:50:19;21.80;;;8.68;;
58083;SDS011;43882;51.550;11.858;2023-08-07T02:52:45;22.05;;;8.50;;
58083;SDS011;43882;51.550;11.858;2023-08-07T02:55:11;22.85;;;9.30;;
58083;SDS011;43882;51.550;11.858;2023-08-07T02:57:37;21.13;;;9.15;;
58083;SDS011;43882;51.550;11.858;2023-08-07T03:00:03;23.13;;;9.05;;
58083;SDS011;43882;51.550;11.858;2023-08-07T03:02:31;20.60;;;8.93;;
58083;SDS011;43882;51.550;11.858;2023-08-07T03:04:57;21.17;;;9.25;;
58083;SDS011;43882;51.550;11.858;2023-08-07T03:07:23;21.95;;;9.25;;
58083;SDS011;43882;51.550;11.858;2023-08-07T03:09:49;22.33;;;9.65;;
58083;SDS011;43882;51.550;11.858;2023-08-07T03:12:15;19.85;;;8.50;;
58083;SDS011;43882;51.550;11.858;2023-08-07T03:14:41;21.00;;;7.82;;
58083;SDS011;43882;51.550;11.858;2023-08-07T03:17:07;20.38;;;7.00;;
58083;SDS011;43882;51.550;11.858;2023-08-07T03:19:33;19.65;;;6.90;;
58083;SDS011;43882;51.550;11.858;2023-08-07T03:21:59;18.55;;;6.72;;
58083;SDS011;43882;51.550;11.858;2023-08-07T03:24:26;18.20;;;6.35;;
58083;SDS011;43882;51.550;11.858;2023-08-07T03:26:52;18.27;;;6.20;;
58083;SDS011;43882;51.550;11.858;2023-08-07T03:29:18;17.52;;;6.28;;
58083;SDS011;43882;51.550;11.858;2023-08-07T03:31:44;19.15;;;6.00;;
58083;SDS011;43882;51.550;11.858;2023-08-07T03:34:10;17.65;;;5.28;;
58083;SDS011;43882;51.550;11.858;2023-08-07T03:36:36;16.83;;;5.75;;
58083;SDS011;43882;51.550;11.858;2023-08-07T03:39:02;18.08;;;6.10;;
58083;SDS011;43882;51.550;11.858;2023-08-07T03:41:28;15.77;;;5.72;;
58083;SDS011;43882;51.550;11.858;2023-08-07T03:43:54;15.88;;;5.45;;
58083;SDS011;43882;51.550;11.858;2023-08-07T03:46:21;17.73;;;5.45;;
58083;SDS011;43882;51.550;11.858;2023-08-07T03:48:47;15.52;;;4.82;;
58083;SDS011;43882;51.550;11.858;2023-08-07T03:51:13;15.73;;;4.22;;
58083;SDS011;43882;51.550;11.858;2023-08-07T03:53:41;14.95;;;4.28;;
58083;SDS011;43882;51.550;11.858;2023-08-07T03:56:07;14.68;;;4.40;;
58083;SDS011;43882;51.550;11.858;2023-08-07T03:58:33;13.25;;;3.83;;
58083;SDS011;43882;51.550;11.858;2023-08-07T04:00:59;13.93;;;4.30;;
58083;SDS011;43882;51.550;11.858;2023-08-07T04:03:26;13.63;;;4.05;;
58083;SDS011;43882;51.550;11.858;2023-08-07T04:05:52;16.05;;;4.70;;
58083;SDS011;43882;51.550;11.858;2023-08-07T04:08:19;15.13;;;5.25;;
58083;SDS011;43882;51.550;11.858;2023-08-07T04:10:45;15.45;;;4.78;;
58083;SDS011;43882;51.550;11.858;2023-08-07T04:13:22;15.82;;;5.10;;
58083;SDS011;43882;51.550;11.858;2023-08-07T04:15:48;15.15;;;5.18;;
58083;SDS011;43882;51.550;11.858;2023-08-07T04:18:14;15.98;;;5.47;;
58083;SDS011;43882;51.550;11.858;2023-08-07T04:20:41;15.30;;;4.75;;
58083;SDS011;43882;51.550;11.858;2023-08-07T04:23:07;16.23;;;5.65;;
58083;SDS011;43882;51.550;11.858;2023-08-07T04:25:33;15.57;;;5.22;;
58083;SDS011;43882;51.550;11.858;2023-08-07T04:28:00;16.55;;;4.90;;
58083;SDS011;43882;51.550;11.858;2023-08-07T04:30:26;16.92;;;5.75;;
58083;SDS011;43882;51.550;11.858;2023-08-07T04:32:52;15.73;;;4.60;;
58083;SDS011;43882;51.550;11.858;2023-08-07T04:35:18;16.38;;;5.38;;
58083;SDS011;43882;51.550;11.858;2023-08-07T04:37:44;16.75;;;5.05;;
58083;SDS011;43882;51.550;11.858;2023-08-07T04:40:10;17.27;;;4.85;;
58083;SDS011;43882;51.550;11.858;2023-08-07T04:42:37;15.00;;;4.60;;
58083;SDS011;43882;51.550;11.858;2023-08-07T04:45:03;16.20;;;5.03;;
58083;SDS011;43882;51.550;11.858;2023-08-07T04:47:29;15.25;;;4.75;;
58083;SDS011;43882;51.550;11.858;2023-08-07T04:49:55;14.48;;;4.45;;
58083;SDS011;43882;51.550;11.858;2023-08-07T04:52:21;16.02;;;4.60;;
58083;SDS011;43882;51.550;11.858;2023-08-07T04:54:48;14.35;;;3.90;;
58083;SDS011;43882;51.550;11.858;2023-08-07T04:57:14;14.95;;;4.20;;
58083;SDS011;43882;51.550;11.858;2023-08-07T04:59:40;14.38;;;4.07;;
58083;SDS011;43882;51.550;11.858;2023-08-07T05:02:06;14.73;;;4.05;;
58083;SDS011;43882;51.550;11.858;2023-08-07T05:04:32;14.48;;;3.88;;
58083;SDS011;43882;51.550;11.858;2023-08-07T05:06:58;13.40;;;3.63;;
58083;SDS011;43882;51.550;11.858;2023-08-07T05:09:25;13.75;;;3.70;;
58083;SDS011;43882;51.550;11.858;2023-08-07T05:11:51;11.98;;;3.20;;
58083;SDS011;43882;51.550;11.858;2023-08-07T05:14:17;11.15;;;3.08;;
58083;SDS011;43882;51.550;11.858;2023-08-07T05:16:43;12.32;;;2.80;;
58083;SDS011;43882;51.550;11.858;2023-08-07T05:19:09;9.55;;;2.80;;
58083;SDS011;43882;51.550;11.858;2023-08-07T05:21:35;9.38;;;2.50;;
58083;SDS011;43882;51.550;11.858;2023-08-07T05:24:01;8.60;;;2.53;;
58083;SDS011;43882;51.550;11.858;2023-08-07T05:26:27;9.65;;;2.65;;
58083;SDS011;43882;51.550;11.858;2023-08-07T05:28:54;11.02;;;2.70;;
58083;SDS011;43882;51.550;11.858;2023-08-07T05:31:23;10.18;;;2.70;;
58083;SDS011;43882;51.550;11.858;2023-08-07T05:33:49;9.07;;;2.42;;
58083;SDS011;43882;51.550;11.858;2023-08-07T05:36:15;9.15;;;2.50;;
58083;SDS011;43882;51.550;11.858;2023-08-07T05:38:41;11.05;;;2.40;;
58083;SDS011;43882;51.550;11.858;2023-08-07T05:41:11;9.52;;;2.38;;
58083;SDS011;43882;51.550;11.858;2023-08-07T05:43:37;10.10;;;2.47;;
58083;SDS011;43882;51.550;11.858;2023-08-07T05:46:03;10.23;;;2.70;;
58083;SDS011;43882;51.550;11.858;2023-08-07T05:48:29;9.77;;;2.88;;
58083;SDS011;43882;51.550;11.858;2023-08-07T05:50:55;11.80;;;2.88;;
58083;SDS011;43882;51.550;11.858;2023-08-07T05:53:21;11.18;;;3.10;;
58083;SDS011;43882;51.550;11.858;2023-08-07T05:55:47;13.88;;;3.00;;
58083;SDS011;43882;51.550;11.858;2023-08-07T05:58:13;13.13;;;3.40;;
58083;SDS011;43882;51.550;11.858;2023-08-07T06:00:39;11.57;;;3.22;;
58083;SDS011;43882;51.550;11.858;2023-08-07T06:03:06;12.68;;;3.17;;
58083;SDS011;43882;51.550;11.858;2023-08-07T06:05:33;13.68;;;3.35;;
58083;SDS011;43882;51.550;11.858;2023-08-07T06:08:00;12.73;;;3.30;;
58083;SDS011;43882;51.550;11.858;2023-08-07T06:10:26;12.02;;;3.25;;
58083;SDS011;43882;51.550;11.858;2023-08-07T06:12:52;12.15;;;3.20;;
58083;SDS011;43882;51.550;11.858;2023-08-07T06:15:18;14.40;;;3.40;;
58083;SDS011;43882;51.550;11.858;2023-08-07T06:17:45;11.73;;;3.08;;
58083;SDS011;43882;51.550;11.858;2023-08-07T06:20:11;12.25;;;3.20;;
58083;SDS011;43882;51.550;11.858;2023-08-07T06:22:39;12.55;;;3.13;;
58083;SDS011;43882;51.550;11.858;2023-08-07T06:25:05;13.45;;;3.47;;
58083;SDS011;43882;51.550;11.858;2023-08-07T06:27:32;12.63;;;3.17;;
58083;SDS011;43882;51.550;11.858;2023-08-07T06:29:58;10.95;;;2.97;;
58083;SDS011;43882;51.550;11.858;2023-08-07T06:32:25;11.63;;;3.25;;
58083;SDS011;43882;51.550;11.858;2023-08-07T06:34:51;12.57;;;3.30;;
58083;SDS011;43882;51.550;11.858;2023-08-07T06:37:18;13.52;;;3.50;;
58083;SDS011;43882;51.550;11.858;2023-08-07T06:39:44;13.27;;;3.17;;
58083;SDS011;43882;51.550;11.858;2023-08-07T06:42:11;13.30;;;3.08;;
58083;SDS011;43882;51.550;11.858;2023-08-07T06:44:37;11.23;;;3.00;;
58083;SDS011;43882;51.550;11.858;2023-08-07T06:47:03;11.85;;;3.00;;
58083;SDS011;43882;51.550;11.858;2023-08-07T06:49:29;9.20;;;2.70;;
58083;SDS011;43882;51.550;11.858;2023-08-07T06:51:57;11.40;;;2.80;;
58083;SDS011;43882;51.550;11.858;2023-08-07T06:54:23;12.95;;;3.25;;
58083;SDS011;43882;51.550;11.858;2023-08-07T06:56:49;12.63;;;3.03;;
58083;SDS011;43882;51.550;11.858;2023-08-07T06:59:15;11.18;;;3.03;;
58083;SDS011;43882;51.550;11.858;2023-08-07T07:01:41;11.63;;;2.88;;
58083;SDS011;43882;51.550;11.858;2023-08-07T07:04:07;11.02;;;2.88;;
58083;SDS011;43882;51.550;11.858;2023-08-07T07:06:33;9.18;;;2.55;;
58083;SDS011;43882;51.550;11.858;2023-08-07T07:09:00;8.68;;;2.58;;
58083;SDS011;43882;51.550;11.858;2023-08-07T07:11:26;9.15;;;2.70;;
58083;SDS011;43882;51.550;11.858;2023-08-07T07:13:52;9.75;;;2.70;;
58083;SDS011;43882;51.550;11.858;2023-08-07T07:16:18;7.38;;;2.20;;
58083;SDS011;43882;51.550;11.858;2023-08-07T07:18:46;6.85;;;2.05;;
58083;SDS011;43882;51.550;11.858;2023-08-07T07:21:16;8.10;;;2.33;;
58083;SDS011;43882;51.550;11.858;2023-08-07T07:23:42;7.13;;;2.20;;
58083;SDS011;43882;51.550;11.858;2023-08-07T07:26:08;6.90;;;1.90;;
58083;SDS011;43882;51.550;11.858;2023-08-07T07:28:34;6.25;;;1.88;;
58083;SDS011;43882;51.550;11.858;2023-08-07T07:31:01;7.68;;;2.15;;
58083;SDS011;43882;51.550;11.858;2023-08-07T07:33:28;7.07;;;2.10;;
58083;SDS011;43882;51.550;11.858;2023-08-07T07:35:55;6.53;;;2.05;;
58083;SDS011;43882;51.550;11.858;2023-08-07T07:38:21;8.77;;;2.38;;
58083;SDS011;43882;51.550;11.858;2023-08-07T07:40:47;8.50;;;2.22;;
58083;SDS011;43882;51.550;11.858;2023-08-07T07:43:13;6.63;;;2.00;;
58083;SDS011;43882;51.550;11.858;2023-08-07T07:45:39;8.32;;;2.30;;
58083;SDS011;43882;51.550;11.858;2023-08-07T07:48:05;7.28;;;2.20;;
58083;SDS011;43882;51.550;11.858;2023-08-07T07:50:33;6.35;;;2.05;;
58083;SDS011;43882;51.550;11.858;2023-08-07T07:52:59;8.02;;;2.17;;
58083;SDS011;43882;51.550;11.858;2023-08-07T07:55:25;6.18;;;1.92;;
58083;SDS011;43882;51.550;11.858;2023-08-07T07:57:51;8.93;;;2.10;;
58083;SDS011;43882;51.550;11.858;2023-08-07T08:00:18;5.55;;;1.98;;
58083;SDS011;43882;51.550;11.858;2023-08-07T08:02:45;7.38;;;2.20;;
58083;SDS011;43882;51.550;11.858;2023-08-07T08:05:11;7.72;;;2.00;;
58083;SDS011;43882;51.550;11.858;2023-08-07T08:07:37;8.35;;;2.10;;
58083;SDS011;43882;51.550;11.858;2023-08-07T08:10:05;5.80;;;2.08;;
58083;SDS011;43882;51.550;11.858;2023-08-07T08:12:32;5.97;;;2.03;;
58083;SDS011;43882;51.550;11.858;2023-08-07T08:14:59;6.47;;;2.03;;
58083;SDS011;43882;51.550;11.858;2023-08-07T08:17:25;7.05;;;1.73;;
58083;SDS011;43882;51.550;11.858;2023-08-07T08:19:51;5.85;;;2.00;;
58083;SDS011;43882;51.550;11.858;2023-08-07T08:22:18;5.65;;;1.77;;
58083;SDS011;43882;51.550;11.858;2023-08-07T08:24:44;6.25;;;2.00;;
58083;SDS011;43882;51.550;11.858;2023-08-07T08:27:10;8.07;;;2.28;;
58083;SDS011;43882;51.550;11.858;2023-08-07T08:29:36;7.68;;;2.33;;
58083;SDS011;43882;51.550;11.858;2023-08-07T08:32:02;8.75;;;2.25;;
58083;SDS011;43882;51.550;11.858;2023-08-07T08:34:29;9.63;;;2.55;;
58083;SDS011;43882;51.550;11.858;2023-08-07T08:36:55;8.63;;;2.40;;
58083;SDS011;43882;51.550;11.858;2023-08-07T08:39:21;9.30;;;2.45;;
58083;SDS011;43882;51.550;11.858;2023-08-07T08:41:47;8.27;;;2.30;;
58083;SDS011;43882;51.550;11.858;2023-08-07T08:44:14;9.48;;;2.50;;
58083;SDS011;43882;51.550;11.858;2023-08-07T08:46:42;8.25;;;2.35;;
58083;SDS011;43882;51.550;11.858;2023-08-07T08:49:08;7.68;;;2.38;;
58083;SDS011;43882;51.550;11.858;2023-08-07T08:51:36;7.93;;;2.45;;
58083;SDS011;43882;51.550;11.858;2023-08-07T08:54:03;8.23;;;2.30;;
58083;SDS011;43882;51.550;11.858;2023-08-07T08:56:30;8.30;;;2.30;;
58083;SDS011;43882;51.550;11.858;2023-08-07T08:58:56;6.45;;;2.50;;
58083;SDS011;43882;51.550;11.858;2023-08-07T09:01:22;6.53;;;2.00;;
58083;SDS011;43882;51.550;11.858;2023-08-07T09:03:50;6.28;;;2.10;;
58083;SDS011;43882;51.550;11.858;2023-08-07T09:06:18;8.60;;;2.30;;
58083;SDS011;43882;51.550;11.858;2023-08-07T09:08:44;8.52;;;2.53;;
58083;SDS011;43882;51.550;11.858;2023-08-07T09:11:11;7.75;;;2.20;;
58083;SDS011;43882;51.550;11.858;2023-08-07T09:13:39;8.90;;;2.40;;
58083;SDS011;43882;51.550;11.858;2023-08-07T09:16:09;6.35;;;2.30;;
58083;SDS011;43882;51.550;11.858;2023-08-07T09:18:36;9.25;;;2.47;;
58083;SDS011;43882;51.550;11.858;2023-08-07T09:21:02;6.10;;;2.10;;
58083;SDS011;43882;51.550;11.858;2023-08-07T09:23:28;5.93;;;1.77;;
58083;SDS011;43882;51.550;11.858;2023-08-07T09:26:04;5.18;;;1.95;;
58083;SDS011;43882;51.550;11.858;2023-08-07T09:28:31;6.35;;;1.80;;
58083;SDS011;43882;51.550;11.858;2023-08-07T09:30:58;4.00;;;1.70;;
58083;SDS011;43882;51.550;11.858;2023-08-07T09:33:27;4.75;;;1.83;;
58083;SDS011;43882;51.550;11.858;2023-08-07T09:35:57;6.20;;;2.00;;
58083;SDS011;43882;51.550;11.858;2023-08-07T09:38:24;9.23;;;2.13;;
58083;SDS011;43882;51.550;11.858;2023-08-07T09:41:01;7.72;;;2.13;;
58083;SDS011;43882;51.550;11.858;2023-08-07T09:43:28;8.77;;;2.20;;
58083;SDS011;43882;51.550;11.858;2023-08-07T09:46:04;8.18;;;2.35;;
58083;SDS011;43882;51.550;11.858;2023-08-07T09:48:31;7.97;;;2.17;;
58083;SDS011;43882;51.550;11.858;2023-08-07T09:51:02;6.80;;;2.10;;
58083;SDS011;43882;51.550;11.858;2023-08-07T09:53:29;7.88;;;2.40;;
58083;SDS011;43882;51.550;11.858;2023-08-07T09:55:55;6.47;;;1.95;;
58083;SDS011;43882;51.550;11.858;2023-08-07T09:58:22;7.30;;;2.22;;
58083;SDS011;43882;51.550;11.858;2023-08-07T10:00:49;6.55;;;2.30;;
58083;SDS011;43882;51.550;11.858;2023-08-07T10:03:17;7.30;;;2.17;;
58083;SDS011;43882;51.550;11.858;2023-08-07T10:05:44;7.07;;;2.58;;
58083;SDS011;43882;51.550;11.858;2023-08-07T10:08:11;4.32;;;1.77;;
58083;SDS011;43882;51.550;11.858;2023-08-07T10:10:40;5.13;;;1.80;;
58083;SDS011;43882;51.550;11.858;2023-08-07T10:13:06;7.32;;;2.13;;
58083;SDS011;43882;51.550;11.858;2023-08-07T10:15:33;8.05;;;2.10;;
58083;SDS011;43882;51.550;11.858;2023-08-07T10:17:59;8.05;;;2.10;;
58083;SDS011;43882;51.550;11.858;2023-08-07T10:20:26;7.95;;;2.20;;
58083;SDS011;43882;51.550;11.858;2023-08-07T10:22:53;7.75;;;2.40;;
58083;SDS011;43882;51.550;11.858;2023-08-07T10:25:32;10.07;;;2.45;;
58083;SDS011;43882;51.550;11.858;2023-08-07T10:28:05;10.48;;;2.72;;
58083;SDS011;43882;51.550;11.858;2023-08-07T10:30:33;8.43;;;2.33;;
58083;SDS011;43882;51.550;11.858;2023-08-07T10:33:00;10.05;;;2.92;;
58083;SDS011;43882;51.550;11.858;2023-08-07T10:35:30;14.00;;;3.22;;
58083;SDS011;43882;51.550;11.858;2023-08-07T10:38:06;10.07;;;2.80;;
58083;SDS011;43882;51.550;11.858;2023-08-07T10:40:34;10.38;;;2.90;;
58083;SDS011;43882;51.550;11.858;2023-08-07T10:43:19;8.88;;;2.40;;
58083;SDS011;43882;51.550;11.858;2023-08-07T10:45:45;6.97;;;2.28;;
58083;SDS011;43882;51.550;11.858;2023-08-07T10:48:12;9.05;;;2.53;;
58083;SDS011;43882;51.550;11.858;2023-08-07T10:53:42;6.82;;;2.22;;
58083;SDS011;43882;51.550;11.858;2023-08-07T11:03:40;8.13;;;2.38;;
58083;SDS011;43882;51.550;11.858;2023-08-07T11:07:05;6.20;;;2.20;;
58083;SDS011;43882;51.550;11.858;2023-08-07T11:10:30;5.18;;;2.00;;
58083;SDS011;43882;51.550;11.858;2023-08-07T11:14:04;5.85;;;2.10;;
58083;SDS011;43882;51.550;11.858;2023-08-07T11:17:29;7.65;;;2.20;;
58083;SDS011;43882;51.550;11.858;2023-08-07T11:20:57;5.50;;;1.90;;
58083;SDS011;43882;51.550;11.858;2023-08-07T11:24:22;4.18;;;1.88;;
58083;SDS011;43882;51.550;11.858;2023-08-07T11:27:47;10.80;;;2.58;;
58083;SDS011;43882;51.550;11.858;2023-08-07T11:31:11;11.15;;;2.90;;
58083;SDS011;43882;51.550;11.858;2023-08-07T11:34:36;9.48;;;2.70;;
58083;SDS011;43882;51.550;11.858;2023-08-07T11:38:01;10.73;;;2.97;;
58083;SDS011;43882;51.550;11.858;2023-08-07T11:41:25;9.98;;;2.75;;
58083;SDS011;43882;51.550;11.858;2023-08-07T11:44:52;11.30;;;3.05;;
58083;SDS011;43882;51.550;11.858;2023-08-07T11:48:16;7.50;;;2.30;;
58083;SDS011;43882;51.550;11.858;2023-08-07T11:51:41;9.27;;;2.50;;
58083;SDS011;43882;51.550;11.858;2023-08-07T11:55:06;11.15;;;2.70;;
58083;SDS011;43882;51.550;11.858;2023-08-07T11:58:35;9.00;;;2.33;;
58083;SDS011;43882;51.550;11.858;2023-08-07T12:02:08;10.40;;;2.60;;
58083;SDS011;43882;51.550;11.858;2023-08-07T12:05:48;9.63;;;2.67;;
58083;SDS011;43882;51.550;11.858;2023-08-07T12:09:20;12.45;;;2.90;;
58083;SDS011;43882;51.550;11.858;2023-08-07T12:12:45;8.77;;;2.20;;
58083;SDS011;43882;51.550;11.858;2023-08-07T12:16:10;8.23;;;2.20;;
58083;SDS011;43882;51.550;11.858;2023-08-07T12:19:35;4.93;;;1.55;;
58083;SDS011;43882;51.550;11.858;2023-08-07T12:23:00;5.13;;;1.75;;
58083;SDS011;43882;51.550;11.858;2023-08-07T12:26:24;8.05;;;1.98;;
58083;SDS011;43882;51.550;11.858;2023-08-07T12:29:49;9.20;;;2.17;;
58083;SDS011;43882;51.550;11.858;2023-08-07T12:33:14;10.38;;;2.33;;
58083;SDS011;43882;51.550;11.858;2023-08-07T12:36:41;8.38;;;2.10;;
58083;SDS011;43882;51.550;11.858;2023-08-07T12:40:06;9.73;;;2.30;;
58083;SDS011;43882;51.550;11.858;2023-08-07T12:43:30;7.80;;;2.00;;
58083;SDS011;43882;51.550;11.858;2023-08-07T12:46:55;5.75;;;1.98;;
58083;SDS011;43882;51.550;11.858;2023-08-07T12:50:20;6.82;;;1.88;;
58083;SDS011;43882;51.550;11.858;2023-08-07T12:53:44;5.70;;;1.88;;
58083;SDS011;43882;51.550;11.858;2023-08-07T12:57:09;11.93;;;2.05;;
58083;SDS011;43882;51.550;11.858;2023-08-07T13:00:33;12.18;;;2.83;;
58083;SDS011;43882;51.550;11.858;2023-08-07T13:03:58;8.82;;;2.40;;
58083;SDS011;43882;51.550;11.858;2023-08-07T13:07:23;7.10;;;2.20;;
58083;SDS011;43882;51.550;11.858;2023-08-07T13:10:47;6.45;;;1.92;;
58083;SDS011;43882;51.550;11.858;2023-08-07T13:14:12;6.97;;;1.83;;
58083;SDS011;43882;51.550;11.858;2023-08-07T13:17:40;7.70;;;2.00;;
58083;SDS011;43882;51.550;11.858;2023-08-07T13:21:05;6.80;;;1.73;;
58083;SDS011;43882;51.550;11.858;2023-08-07T13:24:29;6.03;;;1.60;;
58083;SDS011;43882;51.550;11.858;2023-08-07T13:27:54;5.35;;;1.55;;
58083;SDS011;43882;51.550;11.858;2023-08-07T13:31:19;5.95;;;1.40;;
58083;SDS011;43882;51.550;11.858;2023-08-07T13:34:45;6.63;;;1.45;;
58083;SDS011;43882;51.550;11.858;2023-08-07T13:38:10;7.20;;;1.42;;
58083;SDS011;43882;51.550;11.858;2023-08-07T13:41:34;2.60;;;0.88;;
58083;SDS011;43882;51.550;11.858;2023-08-07T13:44:59;4.32;;;1.20;;
58083;SDS011;43882;51.550;11.858;2023-08-07T13:48:23;3.78;;;1.05;;
58083;SDS011;43882;51.550;11.858;2023-08-07T13:51:48;5.57;;;1.60;;
58083;SDS011;43882;51.550;11.858;2023-08-07T13:55:13;4.90;;;1.58;;
58083;SDS011;43882;51.550;11.858;2023-08-07T13:58:38;5.03;;;1.40;;
58083;SDS011;43882;51.550;11.858;2023-08-07T14:02:04;6.43;;;1.45;;
58083;SDS011;43882;51.550;11.858;2023-08-07T14:05:28;3.00;;;1.25;;
58083;SDS011;43882;51.550;11.858;2023-08-07T14:08:53;5.70;;;1.25;;
58083;SDS011;43882;51.550;11.858;2023-08-07T14:12:18;3.60;;;1.45;;
58083;SDS011;43882;51.550;11.858;2023-08-07T14:15:42;4.70;;;1.38;;
58083;SDS011;43882;51.550;11.858;2023-08-07T14:19:07;6.38;;;1.83;;
58083;SDS011;43882;51.550;11.858;2023-08-07T14:22:33;5.15;;;1.50;;
58083;SDS011;43882;51.550;11.858;2023-08-07T14:25:58;7.50;;;1.88;;
58083;SDS011;43882;51.550;11.858;2023-08-07T14:29:22;9.35;;;2.20;;
58083;SDS011;43882;51.550;11.858;2023-08-07T14:32:47;7.15;;;1.98;;
58083;SDS011;43882;51.550;11.858;2023-08-07T14:36:11;6.05;;;1.70;;
58083;SDS011;43882;51.550;11.858;2023-08-07T14:39:36;7.57;;;2.05;;
58083;SDS011;43882;51.550;11.858;2023-08-07T14:43:05;6.32;;;1.98;;
58083;SDS011;43882;51.550;11.858;2023-08-07T14:46:30;4.97;;;1.63;;
58083;SDS011;43882;51.550;11.858;2023-08-07T14:49:54;7.40;;;1.80;;
58083;SDS011;43882;51.550;11.858;2023-08-07T14:53:21;13.82;;;4.45;;
58083;SDS011;43882;51.550;11.858;2023-08-07T14:56:45;7.30;;;2.10;;
58083;SDS011;43882;51.550;11.858;2023-08-07T15:00:10;10.50;;;2.42;;
58083;SDS011;43882;51.550;11.858;2023-08-07T15:03:35;9.32;;;2.28;;
58083;SDS011;43882;51.550;11.858;2023-08-07T15:07:00;11.48;;;2.10;;
58083;SDS011;43882;51.550;11.858;2023-08-07T15:10:25;10.60;;;2.22;;
58083;SDS011;43882;51.550;11.858;2023-08-07T15:13:49;7.57;;;2.00;;
58083;SDS011;43882;51.550;11.858;2023-08-07T15:17:14;5.53;;;2.08;;
58083;SDS011;43882;51.550;11.858;2023-08-07T15:20:38;9.80;;;2.47;;
58083;SDS011;43882;51.550;11.858;2023-08-07T15:24:03;10.40;;;2.28;;
58083;SDS011;43882;51.550;11.858;2023-08-07T15:27:28;11.18;;;2.85;;
58083;SDS011;43882;51.550;11.858;2023-08-07T15:30:53;9.90;;;2.38;;
58083;SDS011;43882;51.550;11.858;2023-08-07T15:34:17;13.25;;;2.92;;
58083;SDS011;43882;51.550;11.858;2023-08-07T15:37:42;11.07;;;2.85;;
58083;SDS011;43882;51.550;11.858;2023-08-07T15:41:08;10.45;;;2.58;;
58083;SDS011;43882;51.550;11.858;2023-08-07T15:44:34;12.50;;;2.47;;
58083;SDS011;43882;51.550;11.858;2023-08-07T15:47:59;10.68;;;2.30;;
58083;SDS011;43882;51.550;11.858;2023-08-07T15:51:24;10.50;;;2.45;;
58083;SDS011;43882;51.550;11.858;2023-08-07T15:54:48;9.38;;;2.15;;
58083;SDS011;43882;51.550;11.858;2023-08-07T15:58:13;8.93;;;2.33;;
58083;SDS011;43882;51.550;11.858;2023-08-07T16:01:37;10.98;;;2.35;;
58083;SDS011;43882;51.550;11.858;2023-08-07T16:05:02;12.75;;;2.42;;
58083;SDS011;43882;51.550;11.858;2023-08-07T16:08:26;10.43;;;2.50;;
58083;SDS011;43882;51.550;11.858;2023-08-07T16:11:51;12.20;;;2.50;;
58083;SDS011;43882;51.550;11.858;2023-08-07T16:15:16;10.15;;;3.00;;
58083;SDS011;43882;51.550;11.858;2023-08-07T16:18:41;9.15;;;2.20;;